createdAt,value
2022-09-01T00:01:02.309Z,95810
2022-09-01T00:02:11.966Z,95802
2022-09-01T00:03:21.609Z,95802
2022-09-01T00:04:32.320Z,95804
2022-09-01T00:05:39.960Z,95803
2022-09-01T00:06:49.642Z,95804
2022-09-01T00:07:59.343Z,95805
2022-09-01T00:09:08.014Z,95807
2022-09-01T00:10:16.671Z,95809
2022-09-01T00:11:25.328Z,95810
2022-09-01T00:12:34.012Z,95810
2022-09-01T00:13:43.675Z,95806
2022-09-01T00:14:53.353Z,95809
2022-09-01T00:16:02.071Z,95807
2022-09-01T00:17:11.682Z,95806
2022-09-01T00:18:20.545Z,95808
2022-09-01T00:19:30.005Z,95813
2022-09-01T00:20:38.677Z,95811
2022-09-01T00:21:47.316Z,95817
2022-09-01T00:22:56.976Z,95810
2022-09-01T00:24:04.781Z,95810
2022-09-01T00:25:13.427Z,95807
2022-09-01T00:26:23.097Z,95809
2022-09-01T00:27:31.776Z,95810
2022-09-01T00:28:40.426Z,95810
2022-09-01T00:29:49.124Z,95810
2022-09-01T00:30:57.814Z,95811
2022-09-01T00:32:07.429Z,95812
2022-09-01T00:33:16.088Z,95809
2022-09-01T00:34:24.739Z,95805
2022-09-01T00:35:36.821Z,95806
2022-09-01T00:36:43.063Z,95803
2022-09-01T00:37:51.718Z,95805
2022-09-01T00:39:02.371Z,95802
2022-09-01T00:40:13.052Z,95802
2022-09-01T00:41:22.862Z,95801
2022-09-01T00:42:29.493Z,95799
2022-09-01T00:43:39.178Z,95793
2022-09-01T00:44:48.849Z,95792
2022-09-01T00:45:56.558Z,95794
2022-09-01T00:47:06.209Z,95796
2022-09-01T00:48:15.862Z,95795
2022-09-01T00:49:23.502Z,95794
2022-09-01T00:50:33.176Z,95786
2022-09-01T00:51:41.827Z,95789
2022-09-01T00:52:49.530Z,95791
2022-09-01T00:53:59.202Z,95791
2022-09-01T00:55:07.887Z,95790
2022-09-01T00:56:16.536Z,95789
2022-09-01T00:57:26.222Z,95789
2022-09-01T00:58:34.892Z,95785
2022-09-01T00:59:44.566Z,95788
2022-09-01T01:00:54.233Z,95789
2022-09-01T01:02:02.893Z,95790
2022-09-01T01:03:10.552Z,95789
2022-09-01T01:04:19.209Z,95789
2022-09-01T01:05:27.963Z,95790
2022-09-01T01:06:35.516Z,95789
2022-09-01T01:07:45.845Z,95793
2022-09-01T01:08:54.851Z,95796
2022-09-01T01:10:04.554Z,95790
2022-09-01T01:11:14.211Z,95796
2022-09-01T01:12:21.868Z,95794
2022-09-01T01:13:30.535Z,95798
2022-09-01T01:14:40.180Z,95796
2022-09-01T01:15:49.857Z,95793
2022-09-01T01:16:59.550Z,95794
2022-09-01T01:18:08.172Z,95793
2022-09-01T01:19:16.820Z,95795
2022-09-01T01:20:26.471Z,95793
2022-09-01T01:21:36.179Z,95790
2022-09-01T01:22:44.834Z,95793
2022-09-01T01:23:54.504Z,95792
2022-09-01T01:25:02.167Z,95787
2022-09-01T01:26:10.853Z,95790
2022-09-01T01:27:19.641Z,95789
2022-09-01T01:28:29.304Z,95789
2022-09-01T01:29:38.958Z,95787
2022-09-01T01:30:46.671Z,95789
2022-09-01T01:31:55.263Z,95791
2022-09-01T01:33:04.990Z,95787
2022-09-01T01:34:14.631Z,95783
2022-09-01T01:35:23.343Z,95786
2022-09-01T01:36:32.027Z,95783
2022-09-01T01:37:41.691Z,95783
2022-09-01T01:38:51.389Z,95780
2022-09-01T01:40:00.044Z,95780
2022-09-01T01:41:08.694Z,95778
2022-09-01T01:42:17.363Z,95774
2022-09-01T01:43:25.020Z,95774
2022-09-01T01:44:33.686Z,95774
2022-09-01T01:45:42.352Z,95778
2022-09-01T01:46:51.002Z,95776
2022-09-01T01:48:00.698Z,95769
2022-09-01T01:49:08.364Z,95781
2022-09-01T01:50:17.027Z,95775
2022-09-01T01:51:26.732Z,95771
2022-09-01T01:52:34.395Z,95772
2022-09-01T01:53:44.038Z,95775
2022-09-01T01:54:52.694Z,95778
2022-09-01T01:56:01.356Z,95778
2022-09-01T01:57:11.026Z,95774
2022-09-01T01:58:20.076Z,95773
2022-09-01T01:59:28.361Z,95772
2022-09-01T02:00:38.027Z,95772
2022-09-01T02:01:45.743Z,95773
2022-09-01T02:02:54.415Z,95773
2022-09-01T02:04:04.054Z,95769
2022-09-01T02:05:12.698Z,95774
2022-09-01T02:06:22.384Z,95770
2022-09-01T02:07:31.531Z,95770
2022-09-01T02:08:39.728Z,95770
2022-09-01T02:09:49.390Z,95770
2022-09-01T02:10:58.019Z,95769
2022-09-01T02:12:06.673Z,95768
2022-09-01T02:13:16.346Z,95767
2022-09-01T02:14:24.992Z,95772
2022-09-01T02:15:34.675Z,95772
2022-09-01T02:16:43.363Z,95771
2022-09-01T02:17:51.968Z,95768
2022-09-01T02:19:01.673Z,95768
2022-09-01T02:20:10.303Z,95767
2022-09-01T02:21:18.996Z,95766
2022-09-01T02:22:28.661Z,95766
2022-09-01T02:23:37.313Z,95769
2022-09-01T02:24:46.987Z,95766
2022-09-01T02:26:16.395Z,95766
2022-09-01T02:27:05.279Z,95762
2022-09-01T02:28:15.931Z,95762
2022-09-01T02:29:23.581Z,95764
2022-09-01T02:30:30.427Z,95764
2022-09-01T02:31:39.010Z,95765
2022-09-01T02:32:47.656Z,95764
2022-09-01T02:33:57.314Z,95768
2022-09-01T02:35:06.003Z,95771
2022-09-01T02:36:14.693Z,95773
2022-09-01T02:37:23.393Z,95768
2022-09-01T02:38:31.038Z,95771
2022-09-01T02:39:40.701Z,95771
2022-09-01T02:40:49.389Z,95770
2022-09-01T02:41:58.153Z,95771
2022-09-01T02:43:07.812Z,95772
2022-09-01T02:44:16.486Z,95771
2022-09-01T02:45:25.174Z,95773
2022-09-01T02:46:34.848Z,95770
2022-09-01T02:47:44.529Z,95771
2022-09-01T02:48:53.389Z,95770
2022-09-01T02:50:01.916Z,95771
2022-09-01T02:51:11.574Z,95769
2022-09-01T02:52:21.227Z,95766
2022-09-01T02:53:29.976Z,95765
2022-09-01T02:54:39.636Z,95769
2022-09-01T02:55:49.309Z,95770
2022-09-01T02:56:56.966Z,95766
2022-09-01T02:58:06.628Z,95770
2022-09-01T02:59:16.299Z,95772
2022-09-01T03:00:23.947Z,95773
2022-09-01T03:01:32.696Z,95769
2022-09-01T03:02:41.307Z,95773
2022-09-01T03:03:50.959Z,95767
2022-09-01T03:05:00.708Z,95770
2022-09-01T03:06:09.304Z,95769
2022-09-01T03:07:18.962Z,95768
2022-09-01T03:08:27.611Z,95766
2022-09-01T03:09:37.287Z,95768
2022-09-01T03:10:46.985Z,95768
2022-09-01T03:11:55.637Z,95764
2022-09-01T03:13:05.315Z,95763
2022-09-01T03:14:12.965Z,95764
2022-09-01T03:15:21.599Z,95758
2022-09-01T03:16:30.525Z,95755
2022-09-01T03:17:38.951Z,95759
2022-09-01T03:18:47.602Z,95759
2022-09-01T03:19:57.276Z,95757
2022-09-01T03:21:05.948Z,95756
2022-09-01T03:22:15.676Z,95758
2022-09-01T03:23:24.341Z,95756
2022-09-01T03:24:34.003Z,95758
2022-09-01T03:25:43.665Z,95753
2022-09-01T03:26:51.363Z,95748
2022-09-01T03:28:02.930Z,95752
2022-09-01T03:29:10.708Z,95748
2022-09-01T03:30:20.363Z,95751
2022-09-01T03:31:31.104Z,95746
2022-09-01T03:32:38.735Z,95749
2022-09-01T03:33:48.556Z,95751
2022-09-01T03:34:58.229Z,95751
2022-09-01T03:36:10.568Z,95749
2022-09-01T03:37:16.548Z,95754
2022-09-01T03:38:26.208Z,95750
2022-09-01T03:39:34.880Z,95750
2022-09-01T03:40:44.583Z,95747
2022-09-01T03:41:52.204Z,95749
2022-09-01T03:43:00.849Z,95748
2022-09-01T03:44:09.510Z,95748
2022-09-01T03:45:17.303Z,95748
2022-09-01T03:46:26.955Z,95743
2022-09-01T03:47:37.603Z,95746
2022-09-01T03:48:46.269Z,95744
2022-09-01T03:49:55.950Z,95742
2022-09-01T03:51:04.672Z,95741
2022-09-01T03:52:13.323Z,95742
2022-09-01T03:53:22.002Z,95742
2022-09-01T03:54:30.856Z,95740
2022-09-01T03:55:39.304Z,95737
2022-09-01T03:56:47.995Z,95737
2022-09-01T03:57:56.668Z,95736
2022-09-01T03:59:06.422Z,95738
2022-09-01T04:00:15.973Z,95741
2022-09-01T04:01:24.650Z,95736
2022-09-01T04:02:34.340Z,95740
2022-09-01T04:03:43.958Z,95739
2022-09-01T04:04:53.602Z,95736
2022-09-01T04:06:02.279Z,95733
2022-09-01T04:07:10.987Z,95732
2022-09-01T04:08:21.702Z,95733
2022-09-01T04:09:29.362Z,95734
2022-09-01T04:10:39.022Z,95729
2022-09-01T04:11:48.679Z,95732
2022-09-01T04:12:56.340Z,95733
2022-09-01T04:14:05.005Z,95732
2022-09-01T04:15:13.693Z,95734
2022-09-01T04:16:22.419Z,95732
2022-09-01T04:17:32.038Z,95733
2022-09-01T04:18:39.679Z,95733
2022-09-01T04:19:49.399Z,95735
2022-09-01T04:20:59.054Z,95736
2022-09-01T04:22:07.704Z,95731
2022-09-01T04:23:17.390Z,95733
2022-09-01T04:24:26.087Z,95730
2022-09-01T04:25:34.763Z,95730
2022-09-01T04:26:44.444Z,95728
2022-09-01T04:27:53.096Z,95729
2022-09-01T04:29:01.783Z,95730
2022-09-01T04:30:11.477Z,95730
2022-09-01T04:31:19.204Z,95731
2022-09-01T04:32:27.828Z,95738
2022-09-01T04:33:36.492Z,95737
2022-09-01T04:34:45.203Z,95734
2022-09-01T04:35:54.878Z,95731
2022-09-01T04:37:02.678Z,95734
2022-09-01T04:38:11.348Z,95729
2022-09-01T04:39:21.021Z,95734
2022-09-01T04:40:29.868Z,95737
2022-09-01T04:41:38.667Z,95736
2022-09-01T04:42:48.453Z,95734
2022-09-01T04:43:58.193Z,95737
2022-09-01T04:45:10.116Z,95732
2022-09-01T04:46:18.589Z,95733
2022-09-01T04:47:27.134Z,95733
2022-09-01T04:48:37.831Z,95733
2022-09-01T04:49:46.481Z,95736
2022-09-01T04:50:56.134Z,95732
2022-09-01T04:52:05.831Z,95733
2022-09-01T04:53:14.514Z,95735
2022-09-01T04:54:24.209Z,95734
2022-09-01T04:55:32.879Z,95736
2022-09-01T04:56:42.546Z,95739
2022-09-01T04:57:50.243Z,95737
2022-09-01T04:58:58.881Z,95742
2022-09-01T05:00:08.581Z,95740
2022-09-01T05:01:17.280Z,95739
2022-09-01T05:02:25.998Z,95737
2022-09-01T05:03:35.554Z,95740
2022-09-01T05:04:44.212Z,95740
2022-09-01T05:05:53.927Z,95743
2022-09-01T05:07:02.606Z,95736
2022-09-01T05:08:11.301Z,95740
2022-09-01T05:09:21.956Z,95738
2022-09-01T05:10:31.623Z,95734
2022-09-01T05:11:40.313Z,95740
2022-09-01T05:12:48.967Z,95746
2022-09-01T05:13:57.820Z,95746
2022-09-01T05:15:07.297Z,95740
2022-09-01T05:16:16.090Z,95740
2022-09-01T05:17:25.635Z,95745
2022-09-01T05:18:35.327Z,95748
2022-09-01T05:19:42.993Z,95744
2022-09-01T05:20:51.656Z,95748
2022-09-01T05:22:00.317Z,95746
2022-09-01T05:23:09.010Z,95744
2022-09-01T05:24:18.669Z,95749
2022-09-01T05:25:26.342Z,95747
2022-09-01T05:26:35.013Z,95751
2022-09-01T05:27:44.683Z,95747
2022-09-01T05:28:52.410Z,95753
2022-09-01T05:30:01.076Z,95755
2022-09-01T05:31:10.890Z,95750
2022-09-01T05:32:19.504Z,95750
2022-09-01T05:33:29.178Z,95751
2022-09-01T05:34:37.874Z,95752
2022-09-01T05:35:46.539Z,95745
2022-09-01T05:36:56.222Z,95748
2022-09-01T05:38:04.893Z,95747
2022-09-01T05:39:14.567Z,95745
2022-09-01T05:40:23.445Z,95745
2022-09-01T05:41:32.057Z,95740
2022-09-01T05:42:41.732Z,95746
2022-09-01T05:43:53.305Z,95744
2022-09-01T05:45:02.061Z,95743
2022-09-01T05:46:11.927Z,95749
2022-09-01T05:47:21.292Z,95748
2022-09-01T05:48:30.089Z,95745
2022-09-01T05:49:39.747Z,95747
2022-09-01T05:50:48.446Z,95750
2022-09-01T05:51:58.253Z,95746
2022-09-01T05:53:11.046Z,95746
2022-09-01T05:54:16.559Z,95749
2022-09-01T05:55:26.215Z,95743
2022-09-01T05:56:34.874Z,95745
2022-09-01T05:57:44.537Z,95745
2022-09-01T06:00:03.855Z,95742
2022-09-01T06:01:13.539Z,95745
2022-09-01T06:02:21.323Z,95748
2022-09-01T06:03:30.950Z,95741
2022-09-01T06:04:41.513Z,95748
2022-09-01T06:05:51.200Z,95750
2022-09-01T06:07:09.550Z,95749
2022-09-01T06:08:11.536Z,95753
2022-09-01T06:09:20.227Z,95752
2022-09-01T06:10:29.890Z,95749
2022-09-01T06:11:37.562Z,95751
2022-09-01T06:12:48.650Z,95747
2022-09-01T06:13:57.869Z,95748
2022-09-01T06:15:06.583Z,95750
2022-09-01T06:16:16.332Z,95751
2022-09-01T06:17:25.518Z,95754
2022-09-01T06:18:33.593Z,95750
2022-09-01T06:19:42.265Z,95753
2022-09-01T06:20:51.998Z,95753
2022-09-01T06:22:00.652Z,95754
2022-09-01T06:23:10.318Z,95755
2022-09-01T06:24:19.994Z,95760
2022-09-01T06:25:29.661Z,95759
2022-09-01T06:26:39.458Z,95757
2022-09-01T06:27:48.209Z,95759
2022-09-01T06:28:57.824Z,95758
2022-09-01T06:30:07.490Z,95758
2022-09-01T06:31:16.189Z,95761
2022-09-01T06:32:26.202Z,95762
2022-09-01T06:33:35.641Z,95759
2022-09-01T06:34:43.307Z,95762
2022-09-01T06:35:51.981Z,95764
2022-09-01T06:37:00.651Z,95764
2022-09-01T06:38:10.352Z,95760
2022-09-01T06:39:19.015Z,95762
2022-09-01T06:40:27.747Z,95761
2022-09-01T06:41:37.382Z,95762
2022-09-01T06:42:45.043Z,95767
2022-09-01T06:43:54.851Z,95761
2022-09-01T06:45:03.523Z,95764
2022-09-01T06:46:12.229Z,95764
2022-09-01T06:47:21.862Z,95762
2022-09-01T06:48:29.530Z,95761
2022-09-01T06:49:38.240Z,95763
2022-09-01T06:51:18.912Z,95765
2022-09-01T06:51:58.550Z,95767
2022-09-01T06:54:20.915Z,95767
2022-09-01T06:55:28.627Z,95769
2022-09-01T06:56:42.895Z,95769
2022-09-01T06:58:57.606Z,95770
2022-09-01T07:00:06.297Z,95772
2022-09-01T07:01:14.972Z,95773
2022-09-01T07:02:24.509Z,95775
2022-09-01T07:03:33.305Z,95774
2022-09-01T07:04:41.961Z,95774
2022-09-01T07:06:05.902Z,95778
2022-09-01T07:07:53.447Z,95777
2022-09-01T07:08:11.915Z,95778
2022-09-01T07:09:19.994Z,95781
2022-09-01T07:10:29.267Z,95784
2022-09-01T07:13:06.244Z,95789
2022-09-01T07:14:16.669Z,95790
2022-09-01T07:16:32.274Z,95794
2022-09-01T07:17:33.172Z,95790
2022-09-01T07:18:41.855Z,95794
2022-09-01T07:19:52.498Z,95789
2022-09-01T07:21:07.337Z,95794
2022-09-01T07:22:35.558Z,95795
2022-09-01T07:23:24.485Z,95793
2022-09-01T07:24:33.168Z,95795
2022-09-01T07:26:00.911Z,95794
2022-09-01T07:26:52.462Z,95790
2022-09-01T07:28:02.126Z,95793
2022-09-01T07:29:10.790Z,95794
2022-09-01T07:30:20.867Z,95799
2022-09-01T07:32:43.900Z,95795
2022-09-01T07:33:54.137Z,95794
2022-09-01T07:35:01.185Z,95797
2022-09-01T07:36:27.269Z,95802
2022-09-01T07:38:49.584Z,95798
2022-09-01T07:39:50.662Z,95798
2022-09-01T07:43:14.691Z,95799
2022-09-01T07:44:23.334Z,95804
2022-09-01T07:45:32.994Z,95798
2022-09-01T07:46:42.687Z,95803
2022-09-01T07:47:53.649Z,95800
2022-09-01T07:49:29.150Z,95801
2022-09-01T07:50:38.509Z,95800
2022-09-01T07:51:39.839Z,95799
2022-09-01T07:52:34.954Z,95799
2022-09-01T07:53:44.619Z,95803
2022-09-01T07:54:54.294Z,95803
2022-09-01T07:56:01.950Z,95802
2022-09-01T07:57:10.610Z,95810
2022-09-01T07:58:20.296Z,95810
2022-09-01T07:59:28.128Z,95800
2022-09-01T08:00:36.778Z,95808
2022-09-01T08:01:46.497Z,95802
2022-09-01T08:02:57.268Z,95810
2022-09-01T08:04:05.820Z,95810
2022-09-01T08:05:15.544Z,95809
2022-09-01T08:06:24.202Z,95808
2022-09-01T08:07:51.573Z,95809
2022-09-01T08:08:45.507Z,95812
2022-09-01T08:10:01.156Z,95813
2022-09-01T08:11:05.881Z,95811
2022-09-01T08:12:14.554Z,95807
2022-09-01T08:13:25.223Z,95808
2022-09-01T08:14:34.241Z,95815
2022-09-01T08:16:06.621Z,95814
2022-09-01T08:16:53.556Z,95818
2022-09-01T08:18:02.000Z,95820
2022-09-01T08:19:18.711Z,95819
2022-09-01T08:20:21.238Z,95823
2022-09-01T08:21:29.928Z,95826
2022-09-01T08:22:39.665Z,95820
2022-09-01T08:23:49.327Z,95829
2022-09-01T08:24:58.004Z,95829
2022-09-01T08:26:07.691Z,95833
2022-09-01T08:27:16.371Z,95831
2022-09-01T08:28:26.818Z,95827
2022-09-01T08:29:34.747Z,95833
2022-09-01T08:30:47.184Z,95831
2022-09-01T08:31:55.133Z,95836
2022-09-01T08:33:11.032Z,95834
2022-09-01T08:34:13.445Z,95842
2022-09-01T08:35:23.120Z,95841
2022-09-01T08:36:33.778Z,95839
2022-09-01T08:37:42.451Z,95842
2022-09-01T08:38:51.228Z,95838
2022-09-01T08:39:59.822Z,95837
2022-09-01T08:41:09.490Z,95838
2022-09-01T08:42:18.171Z,95835
2022-09-01T08:43:27.854Z,95838
2022-09-01T08:44:37.561Z,95841
2022-09-01T08:45:46.261Z,95843
2022-09-01T08:46:54.964Z,95840
2022-09-01T08:48:36.990Z,95842
2022-09-01T08:49:30.975Z,95841
2022-09-01T08:50:26.069Z,95843
2022-09-01T08:51:33.795Z,95844
2022-09-01T08:52:43.454Z,95845
2022-09-01T08:53:52.125Z,95848
2022-09-01T08:55:00.854Z,95846
2022-09-01T08:56:10.520Z,95846
2022-09-01T08:57:19.205Z,95851
2022-09-01T08:58:28.924Z,95848
2022-09-01T08:59:39.134Z,95849
2022-09-01T09:00:49.295Z,95849
2022-09-01T09:01:57.944Z,95853
2022-09-01T09:03:06.122Z,95850
2022-09-01T09:04:15.284Z,95845
2022-09-01T09:05:24.978Z,95847
2022-09-01T09:06:32.704Z,95847
2022-09-01T09:07:42.416Z,95851
2022-09-01T09:08:52.104Z,95853
2022-09-01T09:10:00.779Z,95848
2022-09-01T09:11:10.441Z,95844
2022-09-01T09:12:19.101Z,95842
2022-09-01T09:13:28.780Z,95846
2022-09-01T09:14:38.500Z,95846
2022-09-01T09:15:46.183Z,95843
2022-09-01T09:16:55.854Z,95846
2022-09-01T09:18:05.527Z,95841
2022-09-01T09:19:16.351Z,95839
2022-09-01T09:20:25.941Z,95841
2022-09-01T09:21:33.601Z,95839
2022-09-01T09:22:43.272Z,95841
2022-09-01T09:23:52.963Z,95840
2022-09-01T09:25:01.653Z,95837
2022-09-01T09:26:15.928Z,95835
2022-09-01T09:27:22.003Z,95838
2022-09-01T09:28:30.681Z,95839
2022-09-01T09:29:40.387Z,95841
2022-09-01T09:30:50.128Z,95843
2022-09-01T09:32:01.222Z,95836
2022-09-01T09:34:22.028Z,95838
2022-09-01T09:35:30.919Z,95839
2022-09-01T09:36:38.367Z,95846
2022-09-01T09:37:49.076Z,95841
2022-09-01T09:38:59.960Z,95839
2022-09-01T09:40:08.597Z,95843
2022-09-01T09:41:20.238Z,95838
2022-09-01T09:42:33.530Z,95830
2022-09-01T09:43:39.390Z,95834
2022-09-01T09:44:50.018Z,95834
2022-09-01T09:46:00.730Z,95835
2022-09-01T09:47:22.022Z,95837
2022-09-01T09:48:19.989Z,95835
2022-09-01T09:49:34.988Z,95829
2022-09-01T09:50:40.363Z,95831
2022-09-01T09:51:50.011Z,95835
2022-09-01T09:53:00.922Z,95828
2022-09-01T09:54:09.375Z,95831
2022-09-01T09:55:18.160Z,95835
2022-09-01T09:56:27.824Z,95829
2022-09-01T09:57:38.484Z,95827
2022-09-01T09:58:47.190Z,95822
2022-09-01T10:00:00.759Z,95824
2022-09-01T10:01:05.958Z,95820
2022-09-01T10:02:15.542Z,95820
2022-09-01T10:03:29.052Z,95825
2022-09-01T10:04:33.909Z,95821
2022-09-01T10:05:43.558Z,95823
2022-09-01T10:06:52.255Z,95827
2022-09-01T10:08:01.958Z,95822
2022-09-01T10:09:10.624Z,95827
2022-09-01T10:10:19.352Z,95822
2022-09-01T10:11:33.398Z,95827
2022-09-01T10:12:38.699Z,95819
2022-09-01T10:13:49.882Z,95826
2022-09-01T10:14:59.074Z,95822
2022-09-01T10:16:10.515Z,95818
2022-09-01T10:17:20.450Z,95815
2022-09-01T10:18:30.069Z,95823
2022-09-01T10:19:38.748Z,95820
2022-09-01T10:20:48.424Z,95822
2022-09-01T10:21:57.090Z,95824
2022-09-01T10:23:06.983Z,95819
2022-09-01T10:24:20.490Z,95816
2022-09-01T10:25:29.113Z,95822
2022-09-01T10:26:36.752Z,95814
2022-09-01T10:27:45.426Z,95824
2022-09-01T10:28:54.078Z,95819
2022-09-01T10:30:19.940Z,95815
2022-09-01T10:31:14.478Z,95814
2022-09-01T10:32:37.155Z,95807
2022-09-01T10:33:36.998Z,95814
2022-09-01T10:34:44.411Z,95813
2022-09-01T10:35:53.091Z,95817
2022-09-01T10:37:02.751Z,95811
2022-09-01T10:38:12.418Z,95813
2022-09-01T10:39:28.449Z,95826
2022-09-01T10:40:32.831Z,95818
2022-09-01T10:41:43.413Z,95818
2022-09-01T10:42:54.071Z,95821
2022-09-01T10:44:04.746Z,95813
2022-09-01T10:45:14.191Z,95821
2022-09-01T10:46:26.017Z,95822
2022-09-01T10:47:32.775Z,95822
2022-09-01T10:48:55.499Z,95822
2022-09-01T10:49:52.060Z,95823
2022-09-01T10:51:01.744Z,95825
2022-09-01T10:52:13.925Z,95818
2022-09-01T10:53:20.483Z,95819
2022-09-01T10:54:29.750Z,95822
2022-09-01T10:55:40.410Z,95819
2022-09-01T10:56:51.706Z,95821
2022-09-01T10:58:07.753Z,95821
2022-09-01T11:00:35.874Z,95812
2022-09-01T11:01:47.640Z,95818
2022-09-01T11:02:42.387Z,95810
2022-09-01T11:03:51.271Z,95811
2022-09-01T11:05:02.319Z,95815
2022-09-01T11:06:12.707Z,95813
2022-09-01T11:07:50.139Z,95813
2022-09-01T11:08:32.250Z,95811
2022-09-01T11:09:41.799Z,95814
2022-09-01T11:10:50.473Z,95809
2022-09-01T11:11:59.130Z,95809
2022-09-01T11:13:08.844Z,95807
2022-09-01T11:14:17.526Z,95811
2022-09-01T11:15:27.190Z,95810
2022-09-01T11:16:52.379Z,95808
2022-09-01T11:17:47.512Z,95806
2022-09-01T11:18:57.201Z,95808
2022-09-01T11:20:05.058Z,95808
2022-09-01T11:21:14.585Z,95801
2022-09-01T11:22:26.081Z,95805
2022-09-01T11:23:32.998Z,95802
2022-09-01T11:24:42.654Z,95810
2022-09-01T11:26:21.382Z,95807
2022-09-01T11:27:02.983Z,95804
2022-09-01T11:28:12.675Z,95802
2022-09-01T11:29:21.368Z,95806
2022-09-01T11:30:30.043Z,95806
2022-09-01T11:31:39.789Z,95804
2022-09-01T11:32:47.369Z,95804
2022-09-01T11:33:56.072Z,95801
2022-09-01T11:35:04.748Z,95801
2022-09-01T11:36:14.449Z,95797
2022-09-01T11:37:27.331Z,95796
2022-09-01T11:38:33.867Z,95799
2022-09-01T11:39:43.584Z,95796
2022-09-01T11:40:53.310Z,95803
2022-09-01T11:42:04.198Z,95796
2022-09-01T11:43:12.497Z,95806
2022-09-01T11:44:21.244Z,95804
2022-09-01T11:45:29.955Z,95800
2022-09-01T11:46:39.589Z,95797
2022-09-01T11:47:48.285Z,95793
2022-09-01T11:48:57.955Z,95790
2022-09-01T11:50:07.627Z,95788
2022-09-01T11:51:16.317Z,95790
2022-09-01T11:52:24.987Z,95791
2022-09-01T11:53:33.659Z,95791
2022-09-01T11:54:42.309Z,95784
2022-09-01T11:55:51.978Z,95787
2022-09-01T11:56:59.661Z,95787
2022-09-01T11:58:08.454Z,95791
2022-09-01T11:59:19.107Z,95789
2022-09-01T12:00:26.765Z,95787
2022-09-01T12:01:35.433Z,95789
2022-09-01T12:02:45.283Z,95787
2022-09-01T12:03:53.925Z,95793
2022-09-01T12:05:02.600Z,95785
2022-09-01T12:06:11.303Z,95788
2022-09-01T12:07:20.977Z,95784
2022-09-01T12:08:30.891Z,95775
2022-09-01T12:09:38.570Z,95776
2022-09-01T12:10:48.268Z,95783
2022-09-01T12:11:57.962Z,95782
2022-09-01T12:13:07.649Z,95779
2022-09-01T12:14:17.354Z,95774
2022-09-01T12:15:27.030Z,95773
2022-09-01T12:16:35.725Z,95783
2022-09-01T12:17:45.413Z,95783
2022-09-01T12:18:54.083Z,95782
2022-09-01T12:20:03.844Z,95780
2022-09-01T12:21:13.449Z,95778
2022-09-01T12:22:21.151Z,95780
2022-09-01T12:23:29.873Z,95787
2022-09-01T12:24:38.549Z,95789
2022-09-01T12:25:47.235Z,95788
2022-09-01T12:26:56.927Z,95785
2022-09-01T12:28:05.606Z,95788
2022-09-01T12:29:14.333Z,95782
2022-09-01T12:30:23.016Z,95782
2022-09-01T12:31:32.742Z,95785
2022-09-01T12:32:42.418Z,95784
2022-09-01T12:33:51.123Z,95784
2022-09-01T12:35:00.867Z,95783
2022-09-01T12:36:11.526Z,95782
2022-09-01T12:37:20.202Z,95786
2022-09-01T12:38:28.874Z,95784
2022-09-01T12:39:38.566Z,95784
2022-09-01T12:40:48.379Z,95781
2022-09-01T12:41:56.978Z,95790
2022-09-01T12:43:05.609Z,95780
2022-09-01T12:44:15.303Z,95793
2022-09-01T12:45:24.995Z,95786
2022-09-01T12:46:34.667Z,95787
2022-09-01T12:47:43.330Z,95784
2022-09-01T12:48:53.030Z,95778
2022-09-01T12:50:03.343Z,95779
2022-09-01T12:51:10.439Z,95785
2022-09-01T12:52:19.819Z,95777
2022-09-01T12:53:27.905Z,95775
2022-09-01T12:54:37.472Z,95782
2022-09-01T12:55:47.617Z,95781
2022-09-01T12:56:55.825Z,95783
2022-09-01T12:58:04.495Z,95784
2022-09-01T12:59:16.095Z,95782
2022-09-01T13:00:24.864Z,95791
2022-09-01T13:01:33.636Z,95779
2022-09-01T13:02:42.281Z,95785
2022-09-01T13:03:50.861Z,95779
2022-09-01T13:04:59.546Z,95783
2022-09-01T13:06:10.336Z,95781
2022-09-01T13:07:20.072Z,95780
2022-09-01T13:08:28.737Z,95782
2022-09-01T13:09:38.417Z,95784
2022-09-01T13:10:46.084Z,95781
2022-09-01T13:12:11.272Z,95783
2022-09-01T13:13:06.589Z,95784
2022-09-01T13:14:16.274Z,95782
2022-09-01T13:15:25.962Z,95783
2022-09-01T13:16:33.650Z,95780
2022-09-01T13:17:43.282Z,95783
2022-09-01T13:20:03.615Z,95783
2022-09-01T13:21:13.308Z,95779
2022-09-01T13:22:21.976Z,95780
2022-09-01T13:23:30.667Z,95782
2022-09-01T13:24:40.339Z,95787
2022-09-01T13:25:50.023Z,95780
2022-09-01T13:28:10.322Z,95779
2022-09-01T13:29:18.028Z,95783
2022-09-01T13:30:26.704Z,95782
2022-09-01T13:31:35.620Z,95784
2022-09-01T13:34:21.484Z,95776
2022-09-01T13:35:07.441Z,95772
2022-09-01T13:37:26.804Z,95775
2022-09-01T13:38:34.473Z,95775
2022-09-01T13:39:44.193Z,95769
2022-09-01T13:40:52.956Z,95763
2022-09-01T13:42:01.560Z,95769
2022-09-01T13:43:11.220Z,95772
2022-09-01T13:44:18.894Z,95768
2022-09-01T13:45:28.692Z,95772
2022-09-01T13:46:58.925Z,95772
2022-09-01T13:48:18.847Z,95772
2022-09-01T13:49:03.127Z,95759
2022-09-01T13:50:13.173Z,95764
2022-09-01T13:51:20.936Z,95761
2022-09-01T13:52:30.621Z,95759
2022-09-01T13:53:38.277Z,95767
2022-09-01T13:54:47.980Z,95766
2022-09-01T13:57:05.310Z,95767
2022-09-01T13:58:14.995Z,95763
2022-09-01T13:59:24.690Z,95765
2022-09-01T14:00:34.352Z,95769
2022-09-01T14:01:44.023Z,95776
2022-09-01T14:02:51.681Z,95768
2022-09-01T14:04:01.485Z,95772
2022-09-01T14:05:11.149Z,95767
2022-09-01T14:06:19.827Z,95768
2022-09-01T14:07:28.499Z,95761
2022-09-01T14:08:38.186Z,95767
2022-09-01T14:09:46.988Z,95763
2022-09-01T14:10:56.681Z,95758
2022-09-01T14:12:04.373Z,95754
2022-09-01T14:13:13.050Z,95754
2022-09-01T14:14:22.731Z,95750
2022-09-01T14:15:30.445Z,95759
2022-09-01T14:16:40.168Z,95755
2022-09-01T14:17:48.826Z,95751
2022-09-01T14:18:58.497Z,95755
2022-09-01T14:20:08.231Z,95748
2022-09-01T14:21:15.937Z,95743
2022-09-01T14:22:25.608Z,95753
2022-09-01T14:23:36.271Z,95754
2022-09-01T14:24:44.972Z,95750
2022-09-01T14:25:53.657Z,95748
2022-09-01T14:27:02.371Z,95748
2022-09-01T14:28:11.074Z,95750
2022-09-01T14:29:20.705Z,95748
2022-09-01T14:30:31.357Z,95749
2022-09-01T14:31:38.073Z,95744
2022-09-01T14:32:48.797Z,95745
2022-09-01T14:33:57.466Z,95747
2022-09-01T14:35:07.163Z,95742
2022-09-01T14:36:15.840Z,95733
2022-09-01T14:37:24.507Z,95745
2022-09-01T14:38:34.227Z,95731
2022-09-01T14:39:41.912Z,95742
2022-09-01T14:40:50.665Z,95738
2022-09-01T14:42:00.257Z,95738
2022-09-01T14:43:08.953Z,95736
2022-09-01T14:44:18.658Z,95743
2022-09-01T14:45:28.363Z,95739
2022-09-01T14:46:36.064Z,95743
2022-09-01T14:47:44.696Z,95735
2022-09-01T14:48:53.352Z,95737
2022-09-01T14:50:03.115Z,95730
2022-09-01T14:51:11.690Z,95738
2022-09-01T14:52:20.360Z,95734
2022-09-01T14:53:30.011Z,95732
2022-09-01T14:54:37.780Z,95728
2022-09-01T14:55:46.451Z,95732
2022-09-01T14:58:06.748Z,95734
2022-09-01T14:59:16.437Z,95733
2022-09-01T15:00:24.200Z,95734
2022-09-01T15:01:34.990Z,95731
2022-09-01T15:02:43.619Z,95729
2022-09-01T15:03:52.333Z,95729
2022-09-01T15:05:01.004Z,95731
2022-09-01T15:06:09.603Z,95732
2022-09-01T15:07:19.310Z,95727
2022-09-01T15:08:28.975Z,95727
2022-09-01T15:09:37.650Z,95726
2022-09-01T15:10:46.346Z,95722
2022-09-01T15:11:56.016Z,95721